Flight APNVIP2

  • Submitted By: Krzysztof H. Blaszkow
  • Departure Airport: Dublin (EIDW)
  • Arrival Airport: Ireland West Airport Knock (EIKN)
  • Aircraft: BE58 (EJ-IAWH)
  • Flight Time: 01.13.29
  • Date Submitted: 02/10/2017
  • Status: Accepted
Flight Details
Gross Revenue:
(5 load / € 4,000.00 per unit
€ 20,000.00
Fuel Cost:
(74.3891 fuel used @ 0.45 / unit)
€ 33.48

Additional Log Information:

View Log

[18:24] - Carenado BARON B58 GOLD GREEN
[18:24] - Flight APNVIP2 is ready to depart EIDW with a final destination of EIKN.
[18:24] - Parking Brake Applied
[18:24] - Beacon Light ON
[18:24] - Instrument Lights ON
[18:24] - Wing Lights ON
[18:24] - Boarding
[18:25] - ADF1 - 284.0
[18:25] - ADF2 - 240.0
[18:25] - NAV1 - 108.90
[18:25] - NAV2 - 110.60
[18:25] - COM1 - 122.80
[18:25] - COM2 - 127.80
[18:25] - Transponder - 6602
[18:25] - Transponder - 2000
[18:25] - NAV1 - 114.90
[18:32] - Engine 1 Started
[18:32] - Engine 2 Started
[18:32] - Taxi Lights ON 3AGL
[18:32] - Parking Brake Released
[18:32] - Pushing Back from the gate
[18:35] - Taxiing to Runway
[18:42] - Taxi Lights OFF 3AGL
[18:42] - Landing Lights ON 3AGL
[18:42] - Strobe Lights ON 3AGL
[18:43] - Taking Off with 5 passengers on board
[18:43] - Take off at 105kts, with a pitch of 4deg and 374lbs of fuel on board
[18:43] - Wind Heading 43 | Wind Speed 7kts | Temperature 3 deg C
[18:43] - METAR Departure: EIDW 101830Z 09010KT 9999 FEW020 SCT025 BKN040 03/M04 Q1028 NOSIG

[18:43] - Gear up at 278AGL
[18:44] - Climbing to TOC
[18:47] - AutoPilot Engaged at 5121AGL
[18:52] - TOC reached
[18:52] - Cruise started
[19:03] - NAV1 - 117.40
[19:04] - NAV1 - 114.90
[19:04] - NAV1 - 117.40
[19:05] - NAV1 - 117.40
[19:16] - TOD reached
[19:16] - Descending to destination
[19:16] - COM1 - 118.60
[19:18] - Landing Shortly
[19:21] - COM1 - 122.80
[19:28] - COM1 - 131.15
[19:31] - AutoPilot Disengaged at 3094AGL
[19:33] - Flaps to position 1 at 1270ft and 162kts
[19:33] - Gear down at 836AGL
[19:34] - Landed at -118fpm. With 216lbs of fuel onboard and a pitch angle of 2deg.
[19:34] - Wind Heading 79 | Wind Speed 9kts | Temperature 3 deg C
[19:34] - METAR Arrival: EIKN 101900Z 06006KT 9999 SCT024 OVC036 01/M03 Q1029 NOSIG

[19:34] - Flaps to position 0
[19:34] - Taxiing to Gate
[19:36] - Parking Brake Applied
[19:36] - Arrived safely at EIKN. We hope you enjoyed your flight!
[19:37] - Engine 2 Stopped
[19:38] - Engine 1 Stopped
[19:39] - Carenado BARON B58 GOLD GREEN
[19:39] - MaxSim Rate: 1x
[19:39] - SiouxAcars ver: 1.0.1.2

Route Map